createdAt,value
2018-08-07T00:00:48.740Z,23.00
2018-08-07T00:03:19.334Z,23.00
2018-08-07T00:08:19.811Z,22.90
2018-08-07T00:10:50.325Z,22.90
2018-08-07T00:13:21.076Z,22.90
2018-08-07T00:15:51.807Z,22.80
2018-08-07T00:18:22.637Z,22.70
2018-08-07T00:20:53.174Z,22.70
2018-08-07T00:23:24.227Z,22.70
2018-08-07T00:25:54.682Z,22.70
2018-08-07T00:28:25.364Z,22.60
2018-08-07T00:30:55.997Z,22.70
2018-08-07T00:33:26.746Z,22.60
2018-08-07T00:35:57.446Z,22.60
2018-08-07T00:43:27.372Z,22.60
2018-08-07T00:45:58.256Z,22.60
2018-08-07T00:48:29.033Z,22.60
2018-08-07T00:50:59.553Z,22.60
2018-08-07T00:53:30.064Z,22.60
2018-08-07T00:56:00.518Z,22.60
2018-08-07T00:58:31.393Z,22.60
2018-08-07T01:01:02.413Z,22.60
2018-08-07T01:03:32.984Z,22.50
2018-08-07T01:06:04.035Z,22.50
2018-08-07T01:08:34.667Z,22.50
2018-08-07T01:11:05.502Z,22.50
2018-08-07T01:13:36.157Z,22.50
2018-08-07T01:16:07.212Z,22.50
2018-08-07T01:23:37.767Z,22.60
2018-08-07T01:26:08.383Z,22.60
2018-08-07T01:28:38.876Z,22.60
2018-08-07T01:31:09.842Z,22.50
2018-08-07T01:33:40.378Z,22.50
2018-08-07T01:36:11.329Z,22.50
2018-08-07T01:38:41.782Z,22.30
2018-08-07T01:41:12.436Z,22.30
2018-08-07T01:43:42.780Z,22.30
2018-08-07T01:46:13.289Z,22.30
2018-08-07T01:48:43.955Z,22.20
2018-08-07T01:51:14.481Z,22.20
2018-08-07T01:53:45.155Z,22.10
2018-08-07T01:56:15.583Z,22.10
2018-08-07T01:58:46.174Z,22.10
2018-08-07T02:01:16.658Z,22.00
2018-08-07T02:03:47.333Z,21.90
2018-08-07T02:06:17.966Z,21.90
2018-08-07T02:08:48.512Z,22.00
2018-08-07T02:11:19.249Z,22.00
2018-08-07T02:13:49.710Z,22.00
2018-08-07T02:16:20.316Z,21.90
2018-08-07T02:18:50.876Z,21.90
2018-08-07T02:21:21.534Z,21.90
2018-08-07T02:23:52.221Z,21.90
2018-08-07T02:26:22.898Z,21.90
2018-08-07T02:28:53.643Z,21.90
2018-08-07T02:31:24.223Z,21.80
2018-08-07T02:33:54.815Z,21.80
2018-08-07T02:36:25.294Z,21.70
2018-08-07T02:41:25.838Z,21.70
2018-08-07T02:43:56.602Z,21.60
2018-08-07T02:46:27.354Z,21.60
2018-08-07T02:51:27.668Z,21.50
2018-08-07T02:53:58.429Z,21.50
2018-08-07T02:56:28.993Z,21.50
2018-08-07T02:58:59.732Z,21.40
2018-08-07T03:01:30.316Z,21.40
2018-08-07T03:06:30.882Z,21.40
2018-08-07T03:09:01.295Z,21.40
2018-08-07T03:11:31.907Z,21.30
2018-08-07T03:19:02.395Z,21.30
2018-08-07T03:21:33.353Z,21.30
2018-08-07T03:24:03.900Z,21.30
2018-08-07T03:26:34.423Z,21.30
2018-08-07T03:29:05.184Z,21.30
2018-08-07T03:31:35.646Z,21.30
2018-08-07T03:34:06.884Z,21.30
2018-08-07T03:36:37.616Z,21.40
2018-08-07T03:39:11.977Z,21.30
2018-08-07T03:41:42.550Z,21.40
2018-08-07T03:46:43.151Z,21.50
2018-08-07T03:49:13.826Z,21.50
2018-08-07T03:54:14.105Z,21.60
2018-08-07T03:56:44.694Z,21.60
2018-08-07T04:01:45.186Z,21.70
2018-08-07T04:04:15.813Z,21.80
2018-08-07T04:06:46.806Z,21.90
2018-08-07T04:11:47.227Z,22.00
2018-08-07T04:14:18.045Z,22.10
2018-08-07T04:16:56.928Z,22.20
2018-08-07T04:19:28.605Z,22.30
2018-08-07T04:24:29.299Z,22.40
2018-08-07T04:26:59.822Z,22.50
2018-08-07T04:32:00.629Z,22.70
2018-08-07T04:34:31.290Z,22.80
2018-08-07T04:44:31.585Z,23.10
2018-08-07T04:49:31.814Z,23.20
2018-08-07T04:52:02.511Z,23.30
2018-08-07T04:54:32.976Z,23.40
2018-08-07T04:57:03.690Z,23.50
2018-08-07T04:59:34.146Z,23.60
2018-08-07T05:02:05.261Z,23.70
2018-08-07T05:04:35.984Z,23.80
2018-08-07T05:07:06.497Z,23.80
2018-08-07T05:09:37.190Z,23.90
2018-08-07T05:12:07.772Z,24.00
2018-08-07T05:14:38.348Z,24.10
2018-08-07T05:17:08.815Z,24.20
2018-08-07T05:19:39.396Z,24.20
2018-08-07T05:22:10.177Z,24.30
2018-08-07T05:24:40.916Z,24.40
2018-08-07T05:29:41.348Z,24.50
2018-08-07T05:32:12.448Z,24.60
2018-08-07T05:34:43.010Z,24.70
2018-08-07T05:37:14.077Z,24.90
2018-08-07T05:39:44.549Z,25.10
2018-08-07T05:42:15.928Z,25.20
2018-08-07T05:44:46.330Z,25.30
2018-08-07T05:47:16.846Z,25.30
2018-08-07T05:49:47.391Z,25.50
2018-08-07T05:52:18.322Z,25.60
2018-08-07T05:54:49.191Z,25.80
2018-08-07T05:57:19.730Z,25.90
2018-08-07T05:59:50.638Z,26.00
2018-08-07T06:02:21.145Z,26.10
2018-08-07T06:07:21.539Z,26.50
2018-08-07T06:09:52.170Z,26.70
2018-08-07T06:12:22.940Z,26.60
2018-08-07T06:14:53.613Z,26.60
2018-08-07T06:17:24.068Z,26.80
2018-08-07T06:19:54.922Z,27.10
2018-08-07T06:22:25.366Z,27.40
2018-08-07T06:24:55.924Z,27.70
2018-08-07T06:27:26.328Z,27.80
2018-08-07T06:29:57.053Z,28.10
2018-08-07T06:32:27.739Z,28.20
2018-08-07T06:34:58.210Z,28.40
2018-08-07T06:37:29.137Z,28.50
2018-08-07T06:40:00.028Z,28.70
2018-08-07T06:45:00.983Z,29.10
2018-08-07T06:47:31.453Z,29.30
2018-08-07T06:50:02.168Z,29.40
2018-08-07T06:52:32.655Z,29.70
2018-08-07T06:55:03.438Z,29.90
2018-08-07T06:57:34.190Z,30.20
2018-08-07T07:00:07.289Z,30.30
2018-08-07T07:02:37.831Z,30.50
2018-08-07T07:05:08.584Z,30.80
2018-08-07T07:07:39.516Z,30.90
2018-08-07T07:10:11.849Z,31.10
2018-08-07T07:17:46.532Z,31.60
2018-08-07T07:22:49.609Z,32.00
2018-08-07T07:25:20.348Z,32.10
2018-08-07T07:27:51.047Z,32.20
2018-08-07T07:32:54.042Z,32.20
2018-08-07T07:35:24.963Z,32.20
2018-08-07T07:37:55.569Z,32.40
2018-08-07T07:40:26.414Z,32.50
2018-08-07T07:45:26.894Z,32.70
2018-08-07T07:47:57.612Z,32.80
2018-08-07T07:52:58.030Z,33.00
2018-08-07T07:55:28.625Z,33.10
2018-08-07T08:00:29.180Z,33.20
2018-08-07T08:02:59.692Z,33.20
2018-08-07T08:05:30.465Z,33.20
2018-08-07T08:08:01.029Z,33.20
2018-08-07T08:15:31.481Z,32.90
2018-08-07T08:20:32.163Z,32.80
2018-08-07T08:25:32.569Z,32.80
2018-08-07T08:28:03.233Z,32.80
2018-08-07T08:30:34.046Z,32.80
2018-08-07T08:33:04.731Z,32.80
2018-08-07T08:35:36.097Z,32.90
2018-08-07T08:38:07.404Z,32.90
2018-08-07T08:40:38.589Z,33.00
2018-08-07T08:43:09.433Z,33.10
2018-08-07T08:45:40.857Z,33.10
2018-08-07T08:48:17.893Z,33.20
2018-08-07T08:50:49.190Z,33.30
2018-08-07T08:55:51.329Z,33.40
2018-08-07T08:58:21.980Z,33.40
2018-08-07T09:00:52.988Z,33.60
2018-08-07T09:03:23.806Z,33.60
2018-08-07T09:05:54.880Z,33.70
2018-08-07T09:08:25.655Z,33.70
2018-08-07T09:10:56.413Z,33.80
2018-08-07T09:13:27.111Z,33.90
2018-08-07T09:15:57.778Z,33.90
2018-08-07T09:18:28.368Z,33.90
2018-08-07T09:20:59.054Z,33.90
2018-08-07T09:25:59.754Z,34.20
2018-08-07T09:31:00.162Z,34.30
2018-08-07T09:33:30.696Z,34.30
2018-08-07T09:36:01.327Z,34.30
2018-08-07T09:41:02.289Z,34.40
2018-08-07T09:43:32.974Z,34.40
2018-08-07T09:46:03.859Z,34.40
2018-08-07T09:48:34.749Z,34.40
2018-08-07T09:51:05.396Z,34.50
2018-08-07T09:53:36.009Z,34.70
2018-08-07T09:56:06.810Z,34.80
2018-08-07T10:01:12.726Z,34.80
2018-08-07T10:03:43.701Z,34.90
2018-08-07T10:06:14.338Z,35.10
2018-08-07T10:08:45.193Z,35.10
2018-08-07T10:11:16.002Z,35.10
2018-08-07T10:16:17.007Z,35.00
2018-08-07T10:21:17.300Z,34.80
2018-08-07T10:23:48.004Z,35.00
2018-08-07T10:26:18.921Z,35.30
2018-08-07T10:28:49.423Z,35.40
2018-08-07T10:31:20.008Z,35.70
2018-08-07T10:33:50.635Z,35.70
2018-08-07T10:36:21.252Z,35.50
2018-08-07T10:38:51.735Z,35.70
2018-08-07T10:41:22.393Z,35.90
2018-08-07T10:43:53.020Z,35.40
2018-08-07T10:46:23.563Z,35.30
2018-08-07T10:48:54.471Z,35.30
2018-08-07T10:51:25.004Z,35.20
2018-08-07T10:53:56.282Z,34.60
2018-08-07T10:56:26.868Z,34.20
2018-08-07T10:58:57.508Z,33.80
2018-08-07T11:01:35.093Z,33.10
2018-08-07T11:04:06.085Z,33.50
2018-08-07T11:06:36.940Z,33.00
2018-08-07T11:09:10.475Z,33.00
2018-08-07T11:11:41.024Z,33.10
2018-08-07T11:16:41.845Z,33.50
2018-08-07T11:19:12.668Z,33.30
2018-08-07T11:21:43.498Z,33.00
2018-08-07T11:24:14.102Z,32.80
2018-08-07T11:29:14.637Z,33.70
2018-08-07T11:31:45.421Z,33.80
2018-08-07T11:34:16.159Z,33.80
2018-08-07T11:36:47.085Z,33.70
2018-08-07T11:39:17.741Z,34.10
2018-08-07T11:41:48.158Z,34.40
2018-08-07T11:44:18.813Z,34.60
2018-08-07T11:46:50.600Z,34.70
2018-08-07T11:51:51.564Z,34.90
2018-08-07T11:54:23.029Z,35.10
2018-08-07T11:56:53.692Z,35.30
2018-08-07T12:01:54.799Z,35.10
2018-08-07T12:04:25.946Z,34.70
2018-08-07T12:06:56.593Z,34.60
2018-08-07T12:09:27.118Z,34.50
2018-08-07T12:11:58.122Z,34.60
2018-08-07T12:14:28.871Z,34.70
2018-08-07T12:16:59.482Z,34.40
2018-08-07T12:19:30.095Z,34.70
2018-08-07T12:22:00.466Z,34.70
2018-08-07T12:24:31.766Z,34.80
2018-08-07T12:27:02.403Z,35.10
2018-08-07T12:29:33.110Z,35.10
2018-08-07T12:34:33.366Z,35.10
2018-08-07T12:37:09.744Z,35.10
2018-08-07T12:39:42.439Z,34.50
2018-08-07T12:42:15.644Z,34.50
2018-08-07T12:44:48.379Z,33.90
2018-08-07T12:47:20.533Z,33.70
2018-08-07T12:49:53.084Z,33.60
2018-08-07T12:54:55.453Z,33.50
2018-08-07T12:57:26.845Z,33.80
2018-08-07T13:00:00.280Z,33.80
2018-08-07T13:02:32.370Z,33.80
2018-08-07T13:05:02.989Z,33.30
2018-08-07T13:07:33.543Z,33.00
2018-08-07T13:10:04.488Z,32.90
2018-08-07T13:12:35.064Z,33.50
2018-08-07T13:15:06.565Z,33.90
2018-08-07T13:17:37.774Z,34.30
2018-08-07T13:20:10.151Z,34.30
2018-08-07T13:22:42.046Z,34.50
2018-08-07T13:25:14.543Z,33.80
2018-08-07T13:27:45.195Z,34.20
2018-08-07T13:32:49.138Z,34.60
2018-08-07T13:35:23.450Z,34.40
2018-08-07T13:37:54.259Z,34.00
2018-08-07T13:40:25.956Z,34.10
2018-08-07T13:42:59.294Z,33.60
2018-08-07T13:45:30.259Z,33.30
2018-08-07T13:48:01.152Z,32.90
2018-08-07T13:50:31.743Z,32.70
2018-08-07T13:53:02.920Z,32.50
2018-08-07T13:55:33.484Z,32.40
2018-08-07T13:58:04.219Z,32.50
2018-08-07T14:00:34.967Z,32.80
2018-08-07T14:03:05.738Z,32.70
2018-08-07T14:05:36.455Z,32.70
2018-08-07T14:08:07.171Z,32.60
2018-08-07T14:10:37.784Z,32.50
2018-08-07T14:13:08.255Z,32.40
2018-08-07T14:15:38.920Z,32.30
2018-08-07T14:18:09.565Z,32.10
2018-08-07T14:20:40.131Z,32.00
2018-08-07T14:23:10.851Z,31.90
2018-08-07T14:25:41.634Z,31.80
2018-08-07T14:30:42.100Z,31.70
2018-08-07T14:33:12.762Z,31.60
2018-08-07T14:35:43.316Z,31.70
2018-08-07T14:40:46.469Z,32.10
2018-08-07T14:43:17.158Z,32.90
2018-08-07T14:45:47.746Z,32.80
2018-08-07T14:48:18.643Z,33.30
2018-08-07T14:50:49.771Z,33.70
2018-08-07T14:53:20.443Z,33.90
2018-08-07T14:55:51.206Z,34.30
2018-08-07T14:58:21.806Z,34.10
2018-08-07T15:00:52.710Z,33.60
2018-08-07T15:03:23.724Z,33.30
2018-08-07T15:05:54.376Z,33.10
2018-08-07T15:08:25.426Z,33.20
2018-08-07T15:10:56.491Z,33.00
2018-08-07T15:13:27.244Z,33.50
2018-08-07T15:18:27.530Z,33.50
2018-08-07T15:20:58.157Z,33.50
2018-08-07T15:23:28.993Z,32.70
2018-08-07T15:25:59.462Z,32.20
2018-08-07T15:30:59.856Z,32.50
2018-08-07T15:33:30.433Z,33.00
2018-08-07T15:36:00.952Z,32.70
2018-08-07T15:38:31.698Z,32.00
2018-08-07T15:41:02.331Z,31.80
2018-08-07T15:43:33.001Z,31.90
2018-08-07T15:46:04.640Z,31.90
2018-08-07T15:48:35.637Z,31.70
2018-08-07T15:51:06.198Z,31.50
2018-08-07T15:56:06.836Z,31.50
2018-08-07T16:01:07.345Z,31.10
2018-08-07T16:03:37.995Z,30.90
2018-08-07T16:06:08.586Z,30.80
2018-08-07T16:08:39.072Z,30.80
2018-08-07T16:11:09.756Z,30.80
2018-08-07T16:13:40.410Z,30.50
2018-08-07T16:16:11.315Z,30.50
2018-08-07T16:18:41.910Z,30.40
2018-08-07T16:21:12.886Z,30.30
2018-08-07T16:23:43.687Z,30.30
2018-08-07T16:26:14.578Z,30.10
2018-08-07T16:28:45.249Z,30.00
2018-08-07T16:31:16.026Z,30.10
2018-08-07T16:33:46.594Z,30.20
2018-08-07T16:36:17.493Z,30.10
2018-08-07T16:38:48.122Z,30.00
2018-08-07T16:41:18.892Z,30.00
2018-08-07T16:46:19.573Z,29.80
2018-08-07T16:51:20.093Z,29.50
2018-08-07T16:53:51.023Z,29.40
2018-08-07T16:56:21.629Z,29.40
2018-08-07T16:58:52.152Z,29.40
2018-08-07T17:01:23.465Z,29.40
2018-08-07T17:03:54.178Z,29.40
2018-08-07T17:08:55.328Z,29.10
2018-08-07T17:11:26.334Z,29.10
2018-08-07T17:13:57.158Z,28.90
2018-08-07T17:16:27.998Z,28.90
2018-08-07T17:18:58.639Z,28.90
2018-08-07T17:21:29.308Z,28.90
2018-08-07T17:23:59.941Z,28.80
2018-08-07T17:26:30.399Z,28.70
2018-08-07T17:29:01.091Z,28.60
2018-08-07T17:31:31.788Z,28.50
2018-08-07T17:34:02.472Z,28.50
2018-08-07T17:36:33.200Z,28.50
2018-08-07T17:39:04.707Z,28.40
2018-08-07T17:41:35.311Z,28.40
2018-08-07T17:44:06.094Z,28.40
2018-08-07T17:46:36.865Z,28.40
2018-08-07T17:49:07.914Z,28.40
2018-08-07T17:51:38.712Z,28.40
2018-08-07T17:54:09.575Z,28.30
2018-08-07T17:56:40.281Z,28.30
2018-08-07T17:59:11.013Z,28.30
2018-08-07T18:01:41.838Z,28.30
2018-08-07T18:04:13.627Z,28.30
2018-08-07T18:06:44.411Z,28.30
2018-08-07T18:09:15.661Z,28.30
2018-08-07T18:11:46.470Z,28.30
2018-08-07T18:14:17.143Z,28.30
2018-08-07T18:16:47.912Z,28.20
2018-08-07T18:19:18.525Z,28.20
2018-08-07T18:21:49.514Z,28.20
2018-08-07T18:24:20.170Z,28.10
2018-08-07T18:26:50.858Z,28.00
2018-08-07T18:29:21.395Z,28.00
2018-08-07T18:31:52.473Z,28.00
2018-08-07T18:34:23.015Z,27.90
2018-08-07T18:36:53.498Z,27.80
2018-08-07T18:39:24.078Z,27.70
2018-08-07T18:41:54.911Z,27.70
2018-08-07T18:44:25.453Z,27.60
2018-08-07T18:46:56.211Z,27.50
2018-08-07T18:51:56.944Z,27.50
2018-08-07T18:54:27.576Z,27.50
2018-08-07T18:56:58.557Z,27.40
2018-08-07T18:59:30.039Z,27.40
2018-08-07T19:02:00.883Z,27.40
2018-08-07T19:04:32.106Z,27.40
2018-08-07T19:07:03.343Z,27.40
2018-08-07T19:09:34.783Z,27.40
2018-08-07T19:12:06.943Z,27.30
2018-08-07T19:14:39.216Z,27.30
2018-08-07T19:17:10.649Z,27.20
2018-08-07T19:19:43.771Z,27.20
2018-08-07T19:22:16.203Z,27.10
2018-08-07T19:24:48.241Z,27.10
2018-08-07T19:27:20.042Z,27.00
2018-08-07T19:29:51.692Z,27.10
2018-08-07T19:32:23.062Z,27.10
2018-08-07T19:34:54.873Z,27.10
2018-08-07T19:37:26.335Z,27.10
2018-08-07T19:39:57.466Z,27.00
2018-08-07T19:42:29.046Z,27.00
2018-08-07T19:45:01.015Z,27.00
2018-08-07T19:47:32.846Z,27.00
2018-08-07T19:50:04.430Z,26.90
2018-08-07T19:55:06.043Z,26.90
2018-08-07T19:57:37.005Z,26.90
2018-08-07T20:00:15.098Z,26.90
2018-08-07T20:02:46.266Z,26.90
2018-08-07T20:05:17.364Z,26.80
2018-08-07T20:07:48.246Z,26.80
2018-08-07T20:10:20.085Z,26.80
2018-08-07T20:12:52.514Z,26.80
2018-08-07T20:15:26.224Z,26.80
2018-08-07T20:17:58.335Z,26.70
2018-08-07T20:20:30.028Z,26.70
2018-08-07T20:23:01.754Z,26.70
2018-08-07T20:25:34.009Z,26.60
2018-08-07T20:28:06.827Z,26.60
2018-08-07T20:30:39.908Z,26.50
2018-08-07T20:33:11.962Z,26.50
2018-08-07T20:35:43.728Z,26.50
2018-08-07T20:38:15.384Z,26.50
2018-08-07T20:40:47.997Z,26.40
2018-08-07T20:43:21.477Z,26.30
2018-08-07T20:45:53.044Z,26.30
2018-08-07T20:50:55.023Z,26.10
2018-08-07T20:53:26.612Z,26.00
2018-08-07T20:55:57.244Z,26.00
2018-08-07T20:58:36.107Z,26.00
2018-08-07T21:01:07.555Z,25.90
2018-08-07T21:03:44.878Z,25.90
2018-08-07T21:06:17.218Z,25.90
2018-08-07T21:08:48.322Z,25.80
2018-08-07T21:11:20.344Z,25.80
2018-08-07T21:13:53.537Z,25.80
2018-08-07T21:16:24.420Z,25.70
2018-08-07T21:18:56.331Z,25.60
2018-08-07T21:21:27.542Z,25.60
2018-08-07T21:24:00.182Z,25.60
2018-08-07T21:26:33.683Z,25.50
2018-08-07T21:31:35.136Z,25.50
2018-08-07T21:36:36.242Z,25.50
2018-08-07T21:39:10.357Z,25.40
2018-08-07T21:41:40.899Z,25.40
2018-08-07T21:44:11.881Z,25.40
2018-08-07T21:46:42.511Z,25.40
2018-08-07T21:49:13.140Z,25.40
2018-08-07T21:54:13.829Z,25.40
2018-08-07T21:56:44.534Z,25.40
2018-08-07T21:59:15.246Z,25.40
2018-08-07T22:01:45.952Z,25.30
2018-08-07T22:04:16.582Z,25.30
2018-08-07T22:06:47.171Z,25.20
2018-08-07T22:09:17.947Z,25.20
2018-08-07T22:11:48.428Z,25.10
2018-08-07T22:14:18.863Z,25.10
2018-08-07T22:19:19.342Z,25.00
2018-08-07T22:21:50.038Z,25.00
2018-08-07T22:24:20.764Z,25.00
2018-08-07T22:26:51.543Z,25.00
2018-08-07T22:29:22.115Z,25.00
2018-08-07T22:31:52.740Z,25.00
2018-08-07T22:34:23.190Z,24.90
2018-08-07T22:39:23.421Z,24.90
2018-08-07T22:41:54.182Z,24.80
2018-08-07T22:44:25.044Z,24.80
2018-08-07T22:46:55.554Z,24.80
2018-08-07T22:49:26.022Z,24.70
2018-08-07T22:51:56.672Z,24.70
2018-08-07T22:54:27.481Z,24.70
2018-08-07T22:56:57.932Z,24.70
2018-08-07T22:59:28.416Z,24.70
2018-08-07T23:01:59.405Z,24.70
2018-08-07T23:04:29.926Z,24.70
2018-08-07T23:07:00.522Z,24.70
2018-08-07T23:09:31.201Z,24.60
2018-08-07T23:12:04.717Z,24.60
2018-08-07T23:14:35.358Z,24.50
2018-08-07T23:17:06.018Z,24.50
2018-08-07T23:19:36.450Z,24.50
2018-08-07T23:22:07.260Z,24.40
2018-08-07T23:24:37.995Z,24.40
2018-08-07T23:27:08.718Z,24.40
2018-08-07T23:29:39.667Z,24.30
2018-08-07T23:32:10.222Z,24.20
2018-08-07T23:34:40.846Z,24.20
2018-08-07T23:37:11.422Z,24.20
2018-08-07T23:39:41.978Z,24.20
2018-08-07T23:42:12.395Z,24.10
2018-08-07T23:44:43.147Z,24.10
2018-08-07T23:47:13.531Z,24.00
2018-08-07T23:49:44.041Z,24.00
2018-08-07T23:52:14.765Z,24.00
2018-08-07T23:57:15.525Z,24.10
2018-08-07T23:59:46.189Z,24.00
